Terminal Aerodrome Forecast
Issued by NWS

Home | Current Version | Previous Version | Text Only | Print | Product List | Glossary On
Versions: 1 2 3 4 5 6 7 8 9 10 11 12 13 14 15 16 17
002
FTUS44 KLIX 241720
TAFMCB
TAF
KMCB 241720Z 2418/2518 00000KT P6SM FEW017 BKN024
      TEMPO 2418/2421 2SM TSRA OVC025CB
     FM250000 VRB03KT P6SM BKN070
     FM250900 02004KT P6SM BKN015=

USA.gov is the U.S. government's official web portal to all federal, state and local government web resources and services.